Time;durP1;ratioP1;P1;durP2;ratioP2;P2;SDS_P1;SDS_P2;PMS_P1;PMS_P2;Temp;Humidity;BMP_temperature;BMP_pressure;BME280_temperature;BME280_humidity;BME280_pressure;Samples;Min_cycle;Max_cycle;Signal;HPM_P1;HPM_P2
2022/11/17 00:01:14;;;;;;;30.63;24.50;;;13.40;99.90;;;;;;5027799;28;20399;-55
2022/11/17 00:03:39;;;;;;;32.63;25.02;;;13.40;99.90;;;;;;5012457;28;20053;-55
2022/11/17 00:06:06;;;;;;;32.17;22.85;;;13.30;99.90;;;;;;5011136;28;20073;-56
2022/11/17 00:08:32;;;;;;;19.27;15.02;;;13.30;99.90;;;;;;5005866;28;20057;-56
2022/11/17 00:11:00;;;;;;;23.08;17.05;;;13.20;99.90;;;;;;5009926;28;20030;-56
2022/11/17 00:16:14;;;;;;;21.25;16.95;;;13.20;99.90;;;;;;5026076;28;20049;-55
2022/11/17 00:21:27;;;;;;;12.52;10.70;;;13.00;99.90;;;;;;5005739;28;20115;-55
2022/11/17 00:23:56;;;;;;;11.48;7.65;;;12.80;99.90;;;;;;5007782;28;20041;-56
2022/11/17 00:26:27;;;;;;;8.88;7.65;;;12.70;99.90;;;;;;5006318;28;20528;-57
2022/11/17 00:28:58;;;;;;;7.15;6.28;;;12.60;99.90;;;;;;5011292;28;20117;-55
2022/11/17 00:34:17;;;;;;;7.03;5.65;;;;;;;;;;5004686;28;20041;-56
2022/11/17 00:36:45;;;;;;;4.03;3.42;;;12.70;99.90;;;;;;5006117;28;20026;-55
2022/11/17 00:39:12;;;;;;;6.35;5.60;;;12.70;99.90;;;;;;5009668;28;20049;-57
2022/11/17 00:41:38;;;;;;;6.20;5.45;;;12.70;99.90;;;;;;5011186;28;20057;-57
2022/11/17 00:44:04;;;;;;;3.42;2.85;;;12.60;99.90;;;;;;5007869;28;20425;-56
2022/11/17 00:46:30;;;;;;;5.45;4.65;;;12.50;99.90;;;;;;5009867;28;20034;-56
2022/11/17 00:48:56;;;;;;;5.10;4.60;;;12.40;99.90;;;;;;5022610;28;20037;-55
2022/11/17 00:51:22;;;;;;;4.18;3.22;;;12.30;99.90;;;;;;5006727;28;20030;-56
2022/11/17 00:53:48;;;;;;;4.13;3.53;;;12.30;99.90;;;;;;5007477;28;20109;-57
2022/11/17 00:56:14;;;;;;;3.92;3.47;;;12.30;99.90;;;;;;5045119;28;20125;-55
2022/11/17 00:58:40;;;;;;;4.18;3.45;;;12.30;99.90;;;;;;5007521;28;20034;-56
2022/11/17 01:01:06;;;;;;;5.50;4.97;;;12.20;99.90;;;;;;5003752;28;20034;-55
2022/11/17 01:03:33;;;;;;;6.60;5.35;;;12.30;99.90;;;;;;5010796;28;20029;-56
2022/11/17 01:06:06;;;;;;;5.20;3.97;;;12.20;99.90;;;;;;5008209;28;20410;-55
2022/11/17 01:08:33;;;;;;;4.88;4.10;;;12.20;99.90;;;;;;5005356;28;20037;-57
2022/11/17 01:11:14;;;;;;;4.00;3.05;;;12.20;99.90;;;;;;5008809;28;20050;-57
2022/11/17 01:13:41;;;;;;;4.78;4.13;;;12.20;99.90;;;;;;5006985;28;20028;-57
2022/11/17 01:16:16;;;;;;;4.43;4.00;;;12.20;99.90;;;;;;5008880;28;20030;-57
2022/11/17 01:18:43;;;;;;;5.13;4.38;;;12.20;99.90;;;;;;5010040;28;20026;-57
2022/11/17 01:21:11;;;;;;;4.32;3.47;;;12.20;99.90;;;;;;5006112;28;20130;-56
2022/11/17 01:23:38;;;;;;;5.35;3.58;;;12.20;99.90;;;;;;5004567;28;20026;-54
2022/11/17 01:26:07;;;;;;;5.25;3.35;;;12.20;99.90;;;;;;5007568;28;20120;-56
2022/11/17 01:28:33;;;;;;;4.03;3.15;;;12.20;99.90;;;;;;5006424;28;20359;-55
2022/11/17 01:31:20;;;;;;;2.67;2.08;;;12.00;99.90;;;;;;5001693;28;20034;-54
2022/11/17 01:33:46;;;;;;;5.13;3.13;;;12.00;99.90;;;;;;5010648;28;20386;-56
2022/11/17 01:36:24;;;;;;;4.20;2.20;;;11.90;99.90;;;;;;5010575;28;20030;-55
2022/11/17 01:38:49;;;;;;;2.33;1.88;;;11.90;99.90;;;;;;5008418;28;20386;-55
2022/11/17 01:41:19;;;;;;;1.67;1.30;;;11.90;99.90;;;;;;5037914;28;20053;-57
2022/11/17 01:43:52;;;;;;;1.35;1.02;;;11.80;99.90;;;;;;5025257;28;20048;-57
2022/11/17 01:46:23;;;;;;;1.63;1.00;;;11.80;99.90;;;;;;5008502;28;20029;-56
2022/11/17 01:48:51;;;;;;;2.20;1.50;;;11.60;99.90;;;;;;5006416;28;20038;-56
2022/11/17 01:51:17;;;;;;;2.88;1.98;;;11.60;99.90;;;;;;5011116;28;20035;-55
2022/11/17 01:53:44;;;;;;;2.45;1.75;;;11.60;99.90;;;;;;5025646;28;20498;-57
2022/11/17 01:56:15;;;;;;;1.52;1.23;;;11.80;99.90;;;;;;5005572;28;20053;-56
2022/11/17 01:58:45;;;;;;;2.53;2.08;;;11.70;99.90;;;;;;5009040;28;20028;-57
2022/11/17 02:01:11;;;;;;;2.83;2.35;;;11.80;99.90;;;;;;5007688;28;20029;-55
2022/11/17 02:03:38;;;;;;;3.15;2.28;;;11.80;99.90;;;;;;5008097;28;20024;-57
2022/11/17 02:06:12;;;;;;;2.78;2.47;;;12.00;99.90;;;;;;5008078;28;20062;-55
2022/11/17 02:08:41;;;;;;;2.08;1.88;;;12.00;99.90;;;;;;5009864;28;20038;-57
2022/11/17 02:11:13;;;;;;;2.67;2.47;;;11.90;99.90;;;;;;5010119;28;20524;-55
2022/11/17 02:13:39;;;;;;;2.50;2.10;;;12.00;99.90;;;;;;5007383;28;20022;-57
2022/11/17 02:16:10;;;;;;;2.60;2.10;;;11.90;99.90;;;;;;5012192;28;20030;-55
2022/11/17 02:18:36;;;;;;;3.03;2.05;;;11.90;99.90;;;;;;5011992;28;20486;-55
2022/11/17 02:21:13;;;;;;;2.47;2.25;;;11.90;99.90;;;;;;5008515;28;20034;-55
2022/11/17 02:24:01;;;;;;;3.10;2.35;;;11.90;99.90;;;;;;5007378;28;20030;-57
2022/11/17 02:27:08;;;;;;;2.72;2.40;;;11.90;99.90;;;;;;5012339;28;20107;-57
2022/11/17 02:29:50;;;;;;;2.60;2.20;;;11.70;99.90;;;;;;5007545;28;20030;-57
2022/11/17 02:32:23;;;;;;;2.80;2.47;;;11.50;99.90;;;;;;5011299;28;20462;-55
2022/11/17 02:34:55;;;;;;;4.32;3.53;;;11.60;99.90;;;;;;5011141;28;20497;-56
2022/11/17 02:37:32;;;;;;;3.67;3.22;;;11.70;99.90;;;;;;5000399;28;20474;-56
2022/11/17 02:40:03;;;;;;;3.22;2.75;;;11.50;99.90;;;;;;5010311;28;20042;-57
2022/11/17 02:45:55;;;;;;;4.47;4.05;;;11.40;99.90;;;;;;5009987;28;20040;-56
2022/11/17 02:48:31;;;;;;;5.30;4.63;;;11.50;99.90;;;;;;5010788;28;20092;-56
2022/11/17 02:50:58;;;;;;;5.80;4.85;;;11.30;99.90;;;;;;5045733;28;20038;-55
2022/11/17 02:53:26;;;;;;;7.00;5.97;;;11.50;99.90;;;;;;5008501;28;20034;-56
2022/11/17 02:55:53;;;;;;;6.13;4.97;;;11.50;99.90;;;;;;5009533;28;20077;-55
2022/11/17 02:58:19;;;;;;;8.15;6.20;;;11.40;99.90;;;;;;5011347;28;20034;-57
2022/11/17 03:01:23;;;;;;;6.15;4.65;;;11.40;99.90;;;;;;5011753;28;20044;-56
2022/11/17 03:04:01;;;;;;;8.48;6.22;;;11.30;99.90;;;;;;5013250;28;20026;-56
2022/11/17 03:06:54;;;;;;;8.45;6.82;;;11.30;99.90;;;;;;5007372;28;20497;-57
2022/11/17 03:09:48;;;;;;;6.45;5.45;;;11.30;99.90;;;;;;5005085;28;20033;-57
2022/11/17 03:12:40;;;;;;;7.43;5.28;;;11.20;99.90;;;;;;5038551;28;20033;-57
2022/11/17 03:15:45;;;;;;;8.18;6.20;;;11.20;99.90;;;;;;5011957;28;20050;-56
2022/11/17 03:18:32;;;;;;;8.05;5.90;;;11.20;99.90;;;;;;4972679;28;20042;-55
2022/11/17 03:21:04;;;;;;;9.02;6.65;;;11.10;99.90;;;;;;4972335;28;20637;-56
2022/11/17 03:23:39;;;;;;;9.95;6.22;;;11.10;99.90;;;;;;4972617;28;20085;-57
2022/11/17 03:26:09;;;;;;;5.78;4.38;;;11.10;99.90;;;;;;4971395;28;20491;-55
2022/11/17 03:28:36;;;;;;;8.38;6.05;;;11.10;99.90;;;;;;4972931;28;20033;-55
2022/11/17 03:31:05;;;;;;;8.93;6.05;;;11.10;99.90;;;;;;4972533;28;20159;-55
2022/11/17 03:33:33;;;;;;;10.65;7.10;;;11.10;99.90;;;;;;4972646;28;20038;-55
2022/11/17 03:36:23;;;;;;;9.13;6.50;;;11.00;99.90;;;;;;4973204;28;20129;-56
2022/11/17 03:39:17;;;;;;;9.52;6.40;;;11.10;99.90;;;;;;4972175;28;20039;-56
2022/11/17 03:41:47;;;;;;;9.18;6.85;;;11.10;99.90;;;;;;4969196;28;20654;-54
2022/11/17 03:44:15;;;;;;;6.45;3.92;;;11.10;99.90;;;;;;4972443;28;20026;-56
2022/11/17 03:46:43;;;;;;;11.15;6.88;;;10.90;99.90;;;;;;4972665;28;20067;-57
2022/11/17 03:49:38;;;;;;;11.55;7.30;;;11.00;99.90;;;;;;4972250;28;20030;-56
2022/11/17 03:52:04;;;;;;;7.30;5.30;;;11.10;99.90;;;;;;4965196;28;20060;-55
2022/11/17 03:54:30;;;;;;;10.68;7.10;;;11.00;99.90;;;;;;4995549;28;20176;-57
2022/11/17 03:57:08;;;;;;;7.97;4.72;;;11.00;99.90;;;;;;5009689;28;20087;-55
2022/11/17 03:59:52;;;;;;;10.20;6.47;;;10.90;99.90;;;;;;5008244;28;20034;-55
2022/11/17 04:02:20;;;;;;;8.90;6.70;;;10.80;99.90;;;;;;5006511;28;20068;-55
2022/11/17 04:05:04;;;;;;;11.23;6.88;;;10.80;99.90;;;;;;5008203;28;20402;-56
2022/11/17 04:07:40;;;;;;;12.35;8.23;;;10.90;99.90;;;;;;5008545;28;20038;-55
2022/11/17 04:10:08;;;;;;;14.32;8.52;;;10.90;99.90;;;;;;5037801;28;20489;-57
2022/11/17 04:18:03;;;;;;;19.40;9.13;;;10.70;99.90;;;;;;5020523;28;20057;-55
2022/11/17 04:20:34;;;;;;;15.82;10.40;;;10.80;99.90;;;;;;5035741;28;20069;-55
2022/11/17 04:23:13;;;;;;;15.20;9.32;;;10.80;99.90;;;;;;5011752;28;20041;-55
2022/11/17 04:28:36;;;;;;;11.82;8.30;;;10.80;99.90;;;;;;5010924;28;20118;-55
2022/11/17 04:31:23;;;;;;;17.90;11.35;;;10.70;99.90;;;;;;5001640;28;20057;-56
2022/11/17 04:33:57;;;;;;;14.82;9.57;;;10.70;99.90;;;;;;5008571;28;20042;-56
2022/11/17 04:36:25;;;;;;;20.63;11.75;;;10.70;99.90;;;;;;5002510;28;20405;-56
2022/11/17 04:38:53;;;;;;;20.77;12.88;;;10.60;99.90;;;;;;5009666;28;20042;-55
2022/11/17 04:44:07;;;;;;;17.88;11.45;;;10.60;99.90;;;;;;5005402;28;20049;-55
2022/11/17 04:46:34;;;;;;;22.13;13.00;;;10.60;99.90;;;;;;5008067;28;20052;-57
2022/11/17 04:49:00;;;;;;;24.23;14.32;;;10.50;99.90;;;;;;5005102;28;20108;-56
2022/11/17 04:51:27;;;;;;;22.92;13.25;;;10.60;99.90;;;;;;5009600;28;20051;-55
2022/11/17 04:53:53;;;;;;;21.40;12.93;;;10.60;99.90;;;;;;5004157;28;20532;-56
2022/11/17 04:56:20;;;;;;;22.42;12.20;;;10.60;99.90;;;;;;5009253;28;20493;-57
2022/11/17 04:58:47;;;;;;;23.63;14.20;;;10.70;99.90;;;;;;5006737;28;20045;-57
2022/11/17 05:01:13;;;;;;;26.70;13.75;;;10.60;99.90;;;;;;5008027;28;20038;-56
2022/11/17 05:03:48;;;;;;;27.05;14.50;;;10.70;99.90;;;;;;5009460;28;20053;-56
2022/11/17 05:06:25;;;;;;;22.20;13.82;;;10.90;99.90;;;;;;5004468;28;20401;-55
2022/11/17 05:08:55;;;;;;;23.35;13.68;;;10.90;99.90;;;;;;5012470;28;20076;-56
2022/11/17 05:14:07;;;;;;;25.17;15.90;;;11.20;99.90;;;;;;5005608;28;20117;-58
2022/11/17 05:19:20;;;;;;;25.00;15.68;;;11.30;99.90;;;;;;5007205;28;20041;-57
2022/11/17 05:21:46;;;;;;;22.80;14.60;;;11.30;99.90;;;;;;5005940;28;20056;-55
2022/11/17 05:24:13;;;;;;;22.70;13.45;;;11.40;99.90;;;;;;5005522;28;20061;-57
2022/11/17 05:26:40;;;;;;;23.52;12.90;;;11.00;99.90;;;;;;5009065;28;20034;-57
2022/11/17 05:29:07;;;;;;;19.15;12.48;;;11.20;99.90;;;;;;5008835;28;20026;-56
2022/11/17 05:31:33;;;;;;;21.52;14.48;;;11.20;99.90;;;;;;5010251;28;20056;-55
2022/11/17 05:34:00;;;;;;;18.55;12.63;;;11.00;99.90;;;;;;5023215;28;20044;-56
2022/11/17 05:36:27;;;;;;;20.30;12.40;;;11.30;99.90;;;;;;5004714;28;20037;-55
2022/11/17 05:38:54;;;;;;;20.10;12.73;;;11.20;99.90;;;;;;5009337;28;20026;-57
2022/11/17 05:41:20;;;;;;;20.63;13.32;;;11.20;99.90;;;;;;5005431;28;20042;-58
2022/11/17 05:43:46;;;;;;;21.17;13.48;;;11.10;99.90;;;;;;5006577;28;20105;-56
2022/11/17 05:46:12;;;;;;;19.27;13.20;;;11.30;99.90;;;;;;5029268;28;20041;-58
2022/11/17 05:48:39;;;;;;;21.35;13.10;;;11.00;99.90;;;;;;5012437;28;20026;-57
2022/11/17 05:51:05;;;;;;;23.85;13.52;;;11.00;99.90;;;;;;5010251;28;20091;-57
2022/11/17 05:53:32;;;;;;;21.83;12.98;;;11.50;99.90;;;;;;5010872;28;20491;-55
2022/11/17 05:56:10;;;;;;;23.88;13.02;;;11.10;99.90;;;;;;5012640;28;20493;-57
2022/11/17 05:58:38;;;;;;;22.80;13.68;;;10.90;99.90;;;;;;5012769;28;20040;-56
2022/11/17 06:01:05;;;;;;;23.38;13.60;;;11.00;99.90;;;;;;5007973;28;20049;-57
2022/11/17 06:03:46;;;;;;;22.60;14.07;;;11.10;99.90;;;;;;5009996;28;20042;-55
2022/11/17 06:06:12;;;;;;;22.48;13.70;;;10.90;99.90;;;;;;5014113;28;20104;-56
2022/11/17 06:08:38;;;;;;;20.65;13.93;;;11.20;99.90;;;;;;5027566;28;20129;-56
2022/11/17 06:11:04;;;;;;;33.13;17.35;;;11.20;99.90;;;;;;5026965;28;20120;-56
2022/11/17 06:13:29;;;;;;;21.05;12.93;;;11.30;99.90;;;;;;5012065;28;20029;-58
2022/11/17 06:15:58;;;;;;;19.90;12.07;;;11.50;99.90;;;;;;5007496;28;20083;-56
2022/11/17 06:18:37;;;;;;;19.48;13.10;;;11.30;99.90;;;;;;5009028;28;20025;-54
2022/11/17 06:21:04;;;;;;;22.90;14.02;;;11.10;99.90;;;;;;4977746;28;20046;-56
2022/11/17 06:23:32;;;;;;;20.15;13.20;;;11.30;99.90;;;;;;5042990;28;20038;-56
2022/11/17 06:26:00;;;;;;;21.70;13.02;;;11.30;99.90;;;;;;5011201;28;20029;-57
2022/11/17 06:28:27;;;;;;;22.23;14.23;;;11.50;99.90;;;;;;5013249;28;20048;-56
2022/11/17 06:30:53;;;;;;;20.77;13.00;;;11.40;99.90;;;;;;5011399;28;20034;-55
2022/11/17 06:33:19;;;;;;;21.00;12.68;;;11.20;99.90;;;;;;5010481;28;20038;-56
2022/11/17 06:35:46;;;;;;;22.35;13.75;;;11.30;99.90;;;;;;5011386;28;20112;-55
2022/11/17 06:38:12;;;;;;;19.95;13.20;;;11.50;99.90;;;;;;5013138;28;20018;-56
2022/11/17 06:40:38;;;;;;;20.98;13.68;;;11.40;99.90;;;;;;5004571;28;20049;-55
2022/11/17 06:43:11;;;;;;;21.13;13.43;;;;;;;;;;5003834;28;20049;-58
2022/11/17 06:45:40;;;;;;;23.67;13.90;;;11.40;99.90;;;;;;5009152;28;20136;-56
2022/11/17 06:48:07;;;;;;;21.70;13.80;;;11.30;99.90;;;;;;5010762;28;20029;-56
2022/11/17 06:50:33;;;;;;;23.65;14.75;;;11.40;99.90;;;;;;5006888;28;20053;-55
2022/11/17 06:53:02;;;;;;;20.48;13.63;;;11.50;99.90;;;;;;5011891;28;20279;-56
2022/11/17 06:55:28;;;;;;;24.02;15.98;;;11.40;99.90;;;;;;5007100;28;20022;-56
2022/11/17 06:57:59;;;;;;;26.02;17.00;;;11.50;99.90;;;;;;5011718;28;20092;-55
2022/11/17 07:00:26;;;;;;;28.30;17.55;;;11.50;99.90;;;;;;5006488;28;20049;-56
2022/11/17 07:02:52;;;;;;;27.13;15.75;;;11.60;99.90;;;;;;5008844;28;20037;-56
2022/11/17 07:05:17;;;;;;;23.88;15.23;;;11.70;99.90;;;;;;5008861;28;20038;-55
2022/11/17 07:07:43;;;;;;;24.98;15.10;;;11.70;99.90;;;;;;5011462;28;20030;-55
2022/11/17 07:10:09;;;;;;;23.48;16.05;;;11.80;99.90;;;;;;5010816;28;20057;-55
2022/11/17 07:12:35;;;;;;;23.33;14.73;;;11.90;99.90;;;;;;5008440;28;20026;-56
2022/11/17 07:15:00;;;;;;;18.05;11.65;;;11.80;99.90;;;;;;5026453;28;20093;-56
2022/11/17 07:17:27;;;;;;;24.95;15.02;;;11.70;99.90;;;;;;5003596;28;20386;-55
2022/11/17 07:19:53;;;;;;;19.13;12.05;;;11.70;99.90;;;;;;5010903;28;20050;-55
2022/11/17 07:22:19;;;;;;;20.38;13.27;;;11.40;99.90;;;;;;5011269;28;20029;-55
2022/11/17 07:24:45;;;;;;;23.48;12.77;;;11.30;99.90;;;;;;5008378;28;20038;-56
2022/11/17 07:27:10;;;;;;;24.70;14.68;;;11.10;99.90;;;;;;5009971;28;20041;-56
2022/11/17 07:29:36;;;;;;;19.52;13.13;;;11.10;99.90;;;;;;5010026;28;20037;-55
2022/11/17 07:32:02;;;;;;;22.50;13.23;;;11.20;99.90;;;;;;5012047;28;20037;-55
2022/11/17 07:34:28;;;;;;;21.50;13.95;;;11.20;99.90;;;;;;5006086;28;20118;-56
2022/11/17 07:36:53;;;;;;;25.05;15.82;;;11.10;99.90;;;;;;5008213;28;20121;-56
2022/11/17 07:39:19;;;;;;;29.92;15.23;;;11.10;99.90;;;;;;5009779;28;20034;-55
2022/11/17 07:41:45;;;;;;;25.65;14.00;;;11.20;99.90;;;;;;5009319;28;20041;-49
2022/11/17 07:44:11;;;;;;;65.35;39.22;;;11.20;99.90;;;;;;5007928;28;20022;-56
2022/11/17 07:46:36;;;;;;;69.03;44.05;;;11.30;99.90;;;;;;5012504;28;20037;-53
2022/11/17 07:49:02;;;;;;;31.60;21.13;;;11.30;99.90;;;;;;5002853;28;20030;-53
2022/11/17 07:51:28;;;;;;;31.83;22.23;;;11.30;99.90;;;;;;5005843;28;20022;-54
2022/11/17 07:53:54;;;;;;;30.42;19.77;;;11.20;99.90;;;;;;4998723;28;20370;-55
2022/11/17 07:56:20;;;;;;;27.52;16.10;;;;;;;;;;5008714;28;20037;-54
2022/11/17 07:58:46;;;;;;;27.65;16.08;;;11.40;99.90;;;;;;5011186;28;20053;-53
2022/11/17 08:01:14;;;;;;;35.88;22.98;;;;;;;;;;5009149;28;20143;-54
2022/11/17 08:03:40;;;;;;;25.77;15.70;;;11.40;99.90;;;;;;5009297;28;20474;-53
2022/11/17 08:06:08;;;;;;;25.30;16.48;;;11.40;99.90;;;;;;5012231;28;20053;-54
2022/11/17 08:08:35;;;;;;;26.63;15.38;;;11.50;99.90;;;;;;5006564;28;20077;-55
2022/11/17 08:11:11;;;;;;;26.02;14.00;;;11.60;99.90;;;;;;5008495;28;20045;-52
2022/11/17 08:13:38;;;;;;;27.60;17.30;;;11.40;99.90;;;;;;5006984;28;20037;-56
2022/11/17 08:16:05;;;;;;;27.20;15.98;;;11.50;99.90;;;;;;4970586;28;20104;-53
2022/11/17 08:18:32;;;;;;;27.20;17.48;;;11.50;99.90;;;;;;5026245;28;20052;-54
2022/11/17 08:21:06;;;;;;;36.97;21.08;;;11.50;99.90;;;;;;5014834;28;20114;-54
2022/11/17 08:23:32;;;;;;;34.33;22.17;;;11.50;99.90;;;;;;5007613;28;20100;-54
2022/11/17 08:25:59;;;;;;;51.33;30.17;;;11.40;99.90;;;;;;5011105;28;20068;-55
2022/11/17 08:28:25;;;;;;;35.05;22.50;;;11.50;99.90;;;;;;5009975;28;20053;-54
2022/11/17 08:30:50;;;;;;;41.97;24.83;;;11.50;99.90;;;;;;5009573;28;20036;-54
2022/11/17 08:33:16;;;;;;;74.05;44.33;;;11.50;99.90;;;;;;5001810;28;20034;-53
2022/11/17 08:39:04;;;;;;;48.78;29.77;;;11.80;99.90;;;;;;5002180;28;20048;-52
2022/11/17 08:41:30;;;;;;;76.78;47.33;;;11.80;99.90;;;;;;5011711;28;20520;-54
2022/11/17 08:43:57;;;;;;;45.08;31.65;;;11.90;99.90;;;;;;5007882;28;20161;-54
2022/11/17 08:46:22;;;;;;;51.88;39.50;;;11.80;99.90;;;;;;5003433;28;20053;-53
2022/11/17 08:48:48;;;;;;;30.60;18.88;;;12.00;99.90;;;;;;5004387;28;20119;-53
2022/11/17 08:51:14;;;;;;;24.20;16.15;;;12.30;99.90;;;;;;5005320;28;20036;-51
2022/11/17 08:53:40;;;;;;;27.17;17.17;;;12.30;99.90;;;;;;5012869;28;20021;-52
2022/11/17 08:56:10;;;;;;;27.35;16.90;;;12.20;99.90;;;;;;5007851;28;20045;-52
2022/11/17 08:58:43;;;;;;;24.48;13.38;;;12.20;99.90;;;;;;5027071;28;20033;-51
2022/11/17 09:01:10;;;;;;;23.38;15.02;;;12.10;99.90;;;;;;5027251;28;20045;-51
2022/11/17 09:03:37;;;;;;;19.90;14.10;;;12.10;99.90;;;;;;5023780;28;20073;-54
2022/11/17 09:06:04;;;;;;;26.83;17.00;;;12.10;99.90;;;;;;5021291;28;20123;-54
2022/11/17 09:08:30;;;;;;;26.83;15.55;;;11.90;99.90;;;;;;5024578;28;20041;-54
2022/11/17 09:10:57;;;;;;;23.17;14.45;;;12.40;99.90;;;;;;4993077;28;20034;-54
2022/11/17 09:13:23;;;;;;;22.73;15.02;;;;;;;;;;5025748;28;20042;-54
2022/11/17 09:15:49;;;;;;;21.95;13.57;;;11.80;99.90;;;;;;5026850;28;20120;-54
2022/11/17 09:18:15;;;;;;;25.23;15.27;;;11.80;99.90;;;;;;5022860;28;20489;-53
2022/11/17 09:20:42;;;;;;;22.88;14.60;;;12.10;99.90;;;;;;5030386;28;20045;-54
2022/11/17 09:23:08;;;;;;;23.75;14.85;;;12.10;99.90;;;;;;5011587;28;20397;-55
2022/11/17 09:25:34;;;;;;;22.83;15.77;;;12.10;99.90;;;;;;5027176;28;20047;-55
2022/11/17 09:28:00;;;;;;;24.27;13.35;;;12.20;99.90;;;;;;5029600;28;20120;-54
2022/11/17 09:30:26;;;;;;;21.73;13.95;;;12.10;99.90;;;;;;5012351;28;20054;-50
2022/11/17 09:32:52;;;;;;;22.35;14.82;;;12.20;99.90;;;;;;4999916;28;20420;-54
2022/11/17 09:35:18;;;;;;;20.38;12.90;;;12.20;99.90;;;;;;5010212;28;20030;-54
2022/11/17 09:37:45;;;;;;;18.05;12.70;;;12.10;99.90;;;;;;5001755;28;20036;-53
2022/11/17 09:40:17;;;;;;;18.38;11.73;;;12.10;99.90;;;;;;5023823;28;20136;-53
2022/11/17 09:42:43;;;;;;;15.98;11.77;;;12.20;99.90;;;;;;5007764;28;20034;-54
2022/11/17 09:45:26;;;;;;;16.73;12.15;;;12.10;99.90;;;;;;5005235;28;20069;-54
2022/11/17 09:48:21;;;;;;;17.55;12.20;;;12.10;99.90;;;;;;5012705;28;20064;-54
2022/11/17 09:50:54;;;;;;;17.23;11.38;;;12.20;99.90;;;;;;5010768;28;20077;-54
2022/11/17 09:53:29;;;;;;;20.73;11.77;;;12.20;99.90;;;;;;5006249;28;20394;-54
2022/11/17 09:56:00;;;;;;;17.08;12.48;;;12.30;99.90;;;;;;5011801;28;20943;-54
2022/11/17 09:58:48;;;;;;;15.33;11.10;;;12.20;99.90;;;;;;5012578;28;20034;-55
2022/11/17 10:01:17;;;;;;;19.15;14.05;;;12.30;99.90;;;;;;5011903;28;20073;-55
2022/11/17 10:03:45;;;;;;;21.83;13.85;;;12.70;99.90;;;;;;5009237;28;20066;-55
2022/11/17 10:06:18;;;;;;;17.52;11.55;;;12.80;99.90;;;;;;5012888;28;20053;-57
2022/11/17 10:09:15;;;;;;;14.82;11.15;;;12.60;99.90;;;;;;5013837;28;20031;-55
2022/11/17 10:11:42;;;;;;;20.60;14.10;;;12.30;99.90;;;;;;5011505;28;20113;-56
2022/11/17 10:14:09;;;;;;;18.65;13.43;;;12.70;99.90;;;;;;5010299;28;20033;-55
2022/11/17 10:16:37;;;;;;;21.70;14.10;;;12.90;99.90;;;;;;5009705;28;20057;-56
2022/11/17 10:19:29;;;;;;;17.35;11.45;;;13.10;99.90;;;;;;5012549;28;20560;-55
2022/11/17 10:22:01;;;;;;;16.70;11.63;;;13.10;99.90;;;;;;5008071;28;20049;-54
2022/11/17 10:24:35;;;;;;;16.63;11.15;;;13.30;99.90;;;;;;5011494;28;20201;-54
2022/11/17 10:27:03;;;;;;;14.90;11.32;;;13.20;99.90;;;;;;5011491;28;20485;-54
2022/11/17 10:29:30;;;;;;;18.17;12.38;;;;;;;;;;5008977;28;20045;-54
2022/11/17 10:31:56;;;;;;;18.33;12.45;;;13.30;99.90;;;;;;5012142;28;20555;-54
2022/11/17 10:34:31;;;;;;;21.83;14.30;;;12.70;99.90;;;;;;5006388;28;20053;-56
2022/11/17 10:37:03;;;;;;;15.20;11.48;;;13.60;99.90;;;;;;5012035;28;20512;-52
2022/11/17 10:39:38;;;;;;;18.52;13.68;;;13.50;99.90;;;;;;4991877;28;20092;-53
2022/11/17 10:42:20;;;;;;;20.10;13.38;;;13.70;99.90;;;;;;4991147;28;20399;-53
2022/11/17 10:44:52;;;;;;;19.45;12.68;;;13.90;99.90;;;;;;4989636;28;20143;-54
2022/11/17 10:47:50;;;;;;;16.70;12.57;;;13.80;99.90;;;;;;4990639;28;20553;-56
2022/11/17 10:50:26;;;;;;;20.05;14.40;;;13.70;99.90;;;;;;4942199;29;20455;-56
2022/11/17 10:52:54;;;;;;;23.88;13.90;;;13.80;99.90;;;;;;4939333;28;20075;-58
2022/11/17 10:55:32;;;;;;;20.73;15.75;;;13.80;99.90;;;;;;4932691;29;20047;-56
2022/11/17 10:58:19;;;;;;;17.88;12.73;;;;;;;;;;4933429;29;20531;-53
2022/11/17 11:00:51;;;;;;;14.90;11.57;;;;;;;;;;4942989;29;20496;-54
2022/11/17 11:03:17;;;;;;;;;;;;;;;;;;4940697;29;20039;-59
2022/11/17 11:06:02;;;;;;;19.95;12.32;;;;;;;;;;4944751;29;19918;-57
2022/11/17 11:08:50;;;;;;;13.80;10.93;;;14.50;99.90;;;;;;4946209;29;20126;-56
2022/11/17 11:11:39;;;;;;;15.32;11.68;;;14.80;99.90;;;;;;4972433;28;20038;-53
2022/11/17 11:14:23;;;;;;;19.20;11.90;;;;;;;;;;4976986;28;20458;-57
2022/11/17 11:16:49;;;;;;;20.55;14.88;;;15.30;99.90;;;;;;4984896;28;20039;-53
2022/11/17 11:19:17;;;;;;;26.00;16.92;;;15.60;99.90;;;;;;4978042;28;20043;-58
2022/11/17 11:22:10;;;;;;;18.38;12.88;;;15.60;99.90;;;;;;4980100;28;20030;-56
2022/11/17 11:24:35;;;;;;;;;;;;;;;;;;4974140;28;20030;-54
2022/11/17 11:27:22;;;;;;;18.30;14.43;;;18.00;99.90;;;;;;5010098;28;20422;-55
2022/11/17 11:29:56;;;;;;;19.20;14.70;;;18.50;99.90;;;;;;5008504;28;20037;-63
2022/11/17 11:32:34;;;;;;;14.73;11.77;;;;;;;;;;5005659;28;20409;-56
2022/11/17 11:35:39;;;;;;;15.00;11.85;;;18.80;99.90;;;;;;5000643;28;20045;-61
2022/11/17 11:38:04;;;;;;;14.38;11.70;;;19.20;99.90;;;;;;5002866;28;20096;-62
2022/11/17 11:40:40;;;;;;;15.85;12.02;;;19.00;99.90;;;;;;5008195;28;20049;-52
2022/11/17 11:43:24;;;;;;;16.23;12.50;;;;;;;;;;5011313;28;20482;-56
2022/11/17 11:45:57;;;;;;;18.65;14.48;;;;;;;;;;5005294;28;20072;-52
2022/11/17 11:48:26;;;;;;;15.63;11.70;;;19.80;99.90;;;;;;5010368;28;20025;-56
2022/11/17 11:50:55;;;;;;;16.92;11.45;;;19.30;99.90;;;;;;5023775;28;20038;-60
2022/11/17 11:53:41;;;;;;;18.20;11.98;;;19.50;99.90;;;;;;5011419;28;20106;-52
2022/11/17 11:56:15;;;;;;;16.48;12.02;;;;;;;;;;5009977;28;20041;-55
2022/11/17 11:58:46;;;;;;;14.05;11.20;;;;;;;;;;5010082;28;20061;-57
2022/11/17 12:01:15;;;;;;;14.73;11.68;;;19.10;99.90;;;;;;5009526;28;20390;-57
2022/11/17 12:03:53;;;;;;;15.10;12.05;;;19.00;99.90;;;;;;5005006;28;20033;-54
2022/11/17 12:06:39;;;;;;;14.48;11.27;;;19.40;99.90;;;;;;5007800;28;20042;-57
2022/11/17 12:09:40;;;;;;;16.35;13.88;;;19.10;99.90;;;;;;5007309;28;20410;-57
2022/11/17 12:12:08;;;;;;;22.67;15.73;;;;;;;;;;4999045;28;20026;-58
2022/11/17 12:14:36;;;;;;;21.13;14.32;;;18.20;99.90;;;;;;4992170;28;20041;-59
2022/11/17 12:17:24;;;;;;;16.75;12.80;;;18.60;99.90;;;;;;5000547;28;20026;-58
2022/11/17 12:19:56;;;;;;;16.25;12.57;;;18.70;99.90;;;;;;5004475;28;20056;-58
2022/11/17 12:22:47;;;;;;;16.63;12.60;;;19.10;99.90;;;;;;5005039;28;20061;-56
2022/11/17 12:25:23;;;;;;;17.23;14.35;;;;;;;;;;5006061;28;20026;-57
2022/11/17 12:27:51;;;;;;;20.90;14.55;;;;;;;;;;5006425;28;20033;-56
2022/11/17 12:30:31;;;;;;;15.68;12.60;;;18.50;99.90;;;;;;5008523;28;20026;-56
2022/11/17 12:33:03;;;;;;;14.40;11.90;;;18.60;99.90;;;;;;5006404;28;20548;-57
2022/11/17 12:35:34;;;;;;;16.35;13.13;;;18.50;99.90;;;;;;5004397;28;20112;-56
2022/11/17 12:38:15;;;;;;;15.65;11.90;;;18.60;99.90;;;;;;5003141;28;20081;-57
2022/11/17 12:40:48;;;;;;;14.65;11.98;;;18.60;99.90;;;;;;5008975;28;20038;-56
2022/11/17 12:43:13;;;;;;;15.95;13.00;;;18.90;99.90;;;;;;4999092;28;20085;-57
2022/11/17 12:45:54;;;;;;;15.68;13.23;;;18.70;99.90;;;;;;5009913;28;20034;-56
2022/11/17 12:48:21;;;;;;;18.20;13.00;;;;;;;;;;5040117;28;20056;-56
2022/11/17 12:51:09;;;;;;;14.75;12.00;;;18.10;99.90;;;;;;5007033;28;20474;-57
2022/11/17 12:53:54;;;;;;;17.60;13.25;;;18.70;99.90;;;;;;5002703;28;20036;-56
2022/11/17 12:56:30;;;;;;;16.42;13.15;;;;;;;;;;5007832;28;20113;-57
2022/11/17 12:59:14;;;;;;;18.38;14.25;;;17.50;99.90;;;;;;5010314;28;20217;-57
2022/11/17 13:01:55;;;;;;;20.90;15.45;;;17.80;99.90;;;;;;5008540;28;20046;-56
2022/11/17 13:04:30;;;;;;;20.63;15.98;;;;;;;;;;5004758;28;20038;-56
2022/11/17 13:07:00;;;;;;;28.13;21.85;;;;;;;;;;5009180;28;20037;-57
2022/11/17 13:09:28;;;;;;;22.15;18.05;;;;;;;;;;5004766;28;21333;-57
2022/11/17 13:12:06;;;;;;;22.00;16.33;;;;;;;;;;5007797;28;20065;-57
2022/11/17 13:14:32;;;;;;;19.23;14.88;;;;;;;;;;5005884;28;20033;-56
2022/11/17 13:16:59;;;;;;;22.63;16.85;;;;;;;;;;5007437;28;20088;-56
2022/11/17 13:19:40;;;;;;;24.10;17.73;;;16.20;99.90;;;;;;5007797;28;20114;-56
2022/11/17 13:22:15;;;;;;;26.67;20.10;;;;;;;;;;5002167;28;20042;-59
2022/11/17 13:24:45;;;;;;;25.02;18.73;;;15.90;99.90;;;;;;5005282;28;20109;-57
2022/11/17 13:27:21;;;;;;;27.25;20.88;;;15.90;99.90;;;;;;5007177;28;20104;-56
2022/11/17 13:29:47;;;;;;;27.95;21.27;;;15.90;99.90;;;;;;5007149;28;20770;-56
2022/11/17 13:32:22;;;;;;;27.95;19.73;;;15.50;99.90;;;;;;5004732;28;20113;-51
2022/11/17 13:34:56;;;;;;;28.63;20.00;;;15.60;99.90;;;;;;5008880;28;20033;-55
2022/11/17 13:37:27;;;;;;;26.63;19.50;;;15.80;99.90;;;;;;5007844;28;20065;-55